createdAt,value
2018-03-28T00:02:26.752Z,23.07
2018-03-28T00:04:54.332Z,24.17
2018-03-28T00:07:21.886Z,26.80
2018-03-28T00:09:49.470Z,20.53
2018-03-28T00:12:17.055Z,20.10
2018-03-28T00:14:44.592Z,21.80
2018-03-28T00:17:12.179Z,29.80
2018-03-28T00:19:40.501Z,18.07
2018-03-28T00:22:08.081Z,21.30
2018-03-28T00:24:35.629Z,18.70
2018-03-28T00:27:03.200Z,17.40
2018-03-28T00:29:30.788Z,20.53
2018-03-28T00:31:59.101Z,22.00
2018-03-28T00:34:26.682Z,18.63
2018-03-28T00:36:54.237Z,19.97
2018-03-28T00:39:21.783Z,17.87
2018-03-28T00:41:49.360Z,19.67
2018-03-28T00:44:16.939Z,17.97
2018-03-28T00:46:44.477Z,53.47
2018-03-28T00:49:12.057Z,26.37
2018-03-28T00:51:39.652Z,18.80
2018-03-28T00:54:07.958Z,24.20
2018-03-28T00:56:35.560Z,20.67
2018-03-28T00:59:03.108Z,21.83
2018-03-28T01:01:30.653Z,34.53
2018-03-28T01:03:58.236Z,18.97
2018-03-28T01:06:25.774Z,32.10
2018-03-28T01:08:53.456Z,19.03
2018-03-28T01:11:21.037Z,16.70
2018-03-28T01:13:48.662Z,13.77
2018-03-28T01:16:16.247Z,38.67
2018-03-28T01:18:43.791Z,24.87
2018-03-28T01:21:11.364Z,18.43
2018-03-28T01:23:38.891Z,15.87
2018-03-28T01:26:06.480Z,12.27
2018-03-28T01:28:34.025Z,13.32
2018-03-28T01:31:01.564Z,12.60
2018-03-28T01:33:29.145Z,14.60
2018-03-28T01:35:56.689Z,13.10
2018-03-28T01:38:24.232Z,18.30
2018-03-28T01:40:52.579Z,16.97
2018-03-28T01:43:20.122Z,14.30
2018-03-28T01:45:47.697Z,11.40
2018-03-28T01:48:15.319Z,12.83
2018-03-28T01:50:42.862Z,11.27
2018-03-28T01:53:10.439Z,13.87
2018-03-28T01:55:38.006Z,13.13
2018-03-28T01:58:05.600Z,18.37
2018-03-28T02:00:33.188Z,15.37
2018-03-28T02:03:01.499Z,30.10
2018-03-28T02:05:29.160Z,21.17
2018-03-28T02:07:56.736Z,14.20
2018-03-28T02:10:24.312Z,13.07
2018-03-28T02:12:52.625Z,10.80
2018-03-28T02:15:20.200Z,9.70
2018-03-28T02:17:47.779Z,19.60
2018-03-28T02:20:15.336Z,11.10
2018-03-28T02:22:42.911Z,20.77
2018-03-28T02:25:10.487Z,28.37
2018-03-28T02:27:39.548Z,16.80
2018-03-28T02:30:07.124Z,24.97
2018-03-28T02:32:34.663Z,23.23
2018-03-28T02:35:02.242Z,11.63
2018-03-28T02:37:29.780Z,14.73
2018-03-28T02:39:57.358Z,21.20
2018-03-28T02:42:24.933Z,15.27
2018-03-28T02:44:52.481Z,11.17
2018-03-28T02:47:20.091Z,10.70
2018-03-28T02:49:48.401Z,26.53
2018-03-28T02:52:15.941Z,14.87
2018-03-28T02:54:43.515Z,14.37
2018-03-28T02:57:11.057Z,15.37
2018-03-28T02:59:39.404Z,10.30
2018-03-28T03:02:06.948Z,29.77
2018-03-28T03:04:34.588Z,15.77
2018-03-28T03:07:02.189Z,11.27
2018-03-28T03:09:29.733Z,11.83
2018-03-28T03:11:57.498Z,11.43
2018-03-28T03:14:25.057Z,10.45
2018-03-28T03:16:52.591Z,10.47
2018-03-28T03:19:20.164Z,10.73
2018-03-28T03:21:47.725Z,8.73
2018-03-28T03:24:15.298Z,10.13
2018-03-28T03:26:42.842Z,9.63
2018-03-28T03:29:10.412Z,9.83
2018-03-28T03:31:37.983Z,13.47
2018-03-28T03:34:05.523Z,9.00
2018-03-28T03:36:33.088Z,9.73
2018-03-28T03:39:00.636Z,11.33
2018-03-28T03:41:28.209Z,7.30
2018-03-28T03:43:55.763Z,9.20
2018-03-28T03:46:23.341Z,8.30
2018-03-28T03:48:51.635Z,8.50
2018-03-28T03:51:19.224Z,8.20
2018-03-28T03:53:46.756Z,7.13
2018-03-28T03:56:15.059Z,8.00
2018-03-28T03:58:42.634Z,8.93
2018-03-28T04:01:10.186Z,7.67
2018-03-28T04:03:38.508Z,7.27
2018-03-28T04:06:06.053Z,7.90
2018-03-28T04:08:33.641Z,7.18
2018-03-28T04:11:01.243Z,6.13
2018-03-28T04:13:28.812Z,4.60
2018-03-28T04:15:56.397Z,5.27
2018-03-28T04:18:23.948Z,6.12
2018-03-28T04:20:51.516Z,7.40
2018-03-28T04:23:19.069Z,4.43
2018-03-28T04:25:46.647Z,5.87
2018-03-28T04:28:14.192Z,4.72
2018-03-28T04:30:41.766Z,5.45
2018-03-28T04:33:09.337Z,6.20
2018-03-28T04:35:36.870Z,4.20
2018-03-28T04:38:04.457Z,4.30
2018-03-28T04:40:32.024Z,4.73
2018-03-28T04:42:59.561Z,4.80
2018-03-28T04:45:27.140Z,4.73
2018-03-28T04:47:54.686Z,4.10
2018-03-28T04:50:22.286Z,4.83
2018-03-28T04:52:50.580Z,8.27
2018-03-28T04:55:18.161Z,5.67
2018-03-28T04:57:45.740Z,3.80
2018-03-28T05:00:13.280Z,2.90
2018-03-28T05:02:40.890Z,3.73
2018-03-28T05:05:09.199Z,4.17
2018-03-28T05:07:36.771Z,4.32
2018-03-28T05:10:04.336Z,3.13
2018-03-28T05:12:31.942Z,4.57
2018-03-28T05:14:59.474Z,3.07
2018-03-28T05:17:27.021Z,4.50
2018-03-28T05:19:54.588Z,4.53
2018-03-28T05:22:22.132Z,4.37
2018-03-28T05:24:49.713Z,3.30
2018-03-28T05:27:17.256Z,3.17
2018-03-28T05:29:44.828Z,3.50
2018-03-28T05:32:12.421Z,3.53
2018-03-28T05:34:40.152Z,3.17
2018-03-28T05:37:07.696Z,2.87
2018-03-28T05:39:35.227Z,1.83
2018-03-28T05:42:02.805Z,3.30
2018-03-28T05:44:30.384Z,1.70
2018-03-28T05:46:57.937Z,2.57
2018-03-28T05:49:25.584Z,1.60
2018-03-28T05:51:53.156Z,4.30
2018-03-28T05:54:20.700Z,4.70
2018-03-28T05:56:48.379Z,3.17
2018-03-28T05:59:15.903Z,2.30
2018-03-28T06:01:44.242Z,3.07
2018-03-28T06:04:11.782Z,3.53
2018-03-28T06:06:39.364Z,2.95
2018-03-28T06:09:06.936Z,2.57
2018-03-28T06:11:34.517Z,3.47
2018-03-28T06:14:03.051Z,3.60
2018-03-28T06:16:30.826Z,4.07
2018-03-28T06:18:58.550Z,6.17
2018-03-28T06:21:26.421Z,5.70
2018-03-28T06:23:54.013Z,5.00
2018-03-28T06:26:21.660Z,2.80
2018-03-28T06:28:49.232Z,3.07
2018-03-28T06:31:16.770Z,7.95
2018-03-28T06:33:44.343Z,7.70
2018-03-28T06:36:11.906Z,4.95
2018-03-28T06:38:39.516Z,10.70
2018-03-28T06:41:07.837Z,4.20
2018-03-28T06:43:35.384Z,5.25
2018-03-28T06:46:02.975Z,5.07
2018-03-28T06:48:30.564Z,3.75
2018-03-28T06:50:58.876Z,7.15
2018-03-28T06:53:26.455Z,4.70
2018-03-28T06:55:53.998Z,6.30
2018-03-28T06:58:21.583Z,6.75
2018-03-28T07:00:49.149Z,10.40
2018-03-28T07:03:16.703Z,5.83
2018-03-28T07:05:45.601Z,8.83
2018-03-28T07:08:13.173Z,7.80
2018-03-28T07:10:40.933Z,3.87
2018-03-28T07:13:08.521Z,11.20
2018-03-28T07:15:36.860Z,7.20
2018-03-28T07:18:04.434Z,10.80
2018-03-28T07:20:31.969Z,7.03
2018-03-28T07:22:59.537Z,8.00
2018-03-28T07:25:27.101Z,7.33
2018-03-28T07:27:54.674Z,6.90
2018-03-28T07:30:22.221Z,7.73
2018-03-28T07:32:49.789Z,7.27
2018-03-28T07:35:17.337Z,8.13
2018-03-28T07:37:44.911Z,6.93
2018-03-28T07:40:12.466Z,7.53
2018-03-28T07:42:40.049Z,7.00
2018-03-28T07:45:08.401Z,7.20
2018-03-28T07:47:35.941Z,7.57
2018-03-28T07:50:03.543Z,6.67
2018-03-28T07:52:31.084Z,8.90
2018-03-28T07:54:58.673Z,4.03
2018-03-28T07:57:26.976Z,6.77
2018-03-28T07:59:54.515Z,6.67
2018-03-28T08:02:22.861Z,7.30
2018-03-28T08:04:50.418Z,6.70
2018-03-28T08:07:17.992Z,5.73
2018-03-28T08:09:45.523Z,7.03
2018-03-28T08:12:13.120Z,11.83
2018-03-28T08:14:40.654Z,5.50
2018-03-28T08:17:08.199Z,4.80
2018-03-28T08:19:35.774Z,6.80
2018-03-28T08:22:03.318Z,4.60
2018-03-28T08:24:31.124Z,10.67
2018-03-28T08:26:59.480Z,6.03
2018-03-28T08:29:27.027Z,6.37
2018-03-28T08:31:54.604Z,5.37
2018-03-28T08:34:22.139Z,7.23
2018-03-28T08:36:49.725Z,3.90
2018-03-28T08:39:17.270Z,6.10
2018-03-28T08:41:44.848Z,5.90
2018-03-28T08:44:13.937Z,5.13
2018-03-28T08:46:41.472Z,5.10
2018-03-28T08:49:09.052Z,4.50
2018-03-28T08:51:36.621Z,6.90
2018-03-28T08:54:04.237Z,7.23
2018-03-28T08:56:31.809Z,1.57
2018-03-28T08:58:59.388Z,5.00
2018-03-28T09:01:26.943Z,3.50
2018-03-28T09:03:54.614Z,3.40
2018-03-28T09:06:22.878Z,4.23
2018-03-28T09:08:50.427Z,3.70
2018-03-28T09:11:18.015Z,6.33
2018-03-28T09:13:45.560Z,4.00
2018-03-28T09:16:13.115Z,3.23
2018-03-28T09:18:40.691Z,7.30
2018-03-28T09:21:08.234Z,3.93
2018-03-28T09:23:35.818Z,4.80
2018-03-28T09:26:03.385Z,4.20
2018-03-28T09:28:30.911Z,3.50
2018-03-28T09:30:58.474Z,7.47
2018-03-28T09:33:26.017Z,3.70
2018-03-28T09:35:53.596Z,5.03
2018-03-28T09:38:21.185Z,5.10
2018-03-28T09:40:48.818Z,11.57
2018-03-28T09:43:16.361Z,8.53
2018-03-28T09:45:43.936Z,3.50
2018-03-28T09:48:11.478Z,2.90
2018-03-28T09:50:39.050Z,2.00
2018-03-28T09:53:06.667Z,12.43
2018-03-28T09:55:34.971Z,6.00
2018-03-28T09:58:02.520Z,9.63
2018-03-28T10:00:30.884Z,3.73
2018-03-28T10:03:04.799Z,3.50
2018-03-28T10:05:39.153Z,2.93
2018-03-28T10:08:06.733Z,3.73
2018-03-28T10:10:34.273Z,2.17
2018-03-28T10:13:01.855Z,3.27
2018-03-28T10:15:29.393Z,8.87
2018-03-28T10:17:57.159Z,10.83
2018-03-28T10:20:24.736Z,3.70
2018-03-28T10:22:52.292Z,3.67
2018-03-28T10:25:19.845Z,5.17
2018-03-28T10:27:47.418Z,3.23
2018-03-28T10:30:14.954Z,10.13
2018-03-28T10:32:42.525Z,5.13
2018-03-28T10:35:10.124Z,5.20
2018-03-28T10:37:37.696Z,13.63
2018-03-28T10:40:06.004Z,10.20
2018-03-28T10:42:33.546Z,6.60
2018-03-28T10:45:01.127Z,4.10
2018-03-28T10:47:28.682Z,5.50
2018-03-28T10:49:56.233Z,3.70
2018-03-28T10:52:23.806Z,7.00
2018-03-28T10:54:51.347Z,4.83
2018-03-28T10:57:18.929Z,9.57
2018-03-28T10:59:46.468Z,3.00
2018-03-28T11:02:14.081Z,5.00
2018-03-28T11:04:41.626Z,4.13
2018-03-28T11:07:09.220Z,3.83
2018-03-28T11:09:36.753Z,5.60
2018-03-28T11:12:04.301Z,4.80
2018-03-28T11:14:31.885Z,2.77
2018-03-28T11:16:59.426Z,3.83
2018-03-28T11:19:27.012Z,4.90
2018-03-28T11:21:54.555Z,3.33
2018-03-28T11:24:22.143Z,3.40
2018-03-28T11:26:49.725Z,7.90
2018-03-28T11:29:18.034Z,3.97
2018-03-28T11:31:45.574Z,2.33
2018-03-28T11:34:13.151Z,2.23
2018-03-28T11:36:40.688Z,4.30
2018-03-28T11:39:08.271Z,3.67
2018-03-28T11:41:35.832Z,1.80
2018-03-28T11:44:03.373Z,3.77
2018-03-28T11:46:30.943Z,1.50
2018-03-28T11:48:58.484Z,2.77
2018-03-28T11:51:26.823Z,1.73
2018-03-28T11:53:54.363Z,2.30
2018-03-28T11:56:21.965Z,1.53
2018-03-28T11:58:50.321Z,4.10
2018-03-28T12:01:17.863Z,7.67
2018-03-28T12:03:45.434Z,1.43
2018-03-28T12:06:12.971Z,1.70
2018-03-28T12:08:42.359Z,2.37
2018-03-28T12:11:09.902Z,1.70
2018-03-28T12:13:37.488Z,2.10
2018-03-28T12:16:05.085Z,3.37
2018-03-28T12:18:32.659Z,1.80
2018-03-28T12:21:00.190Z,2.13
2018-03-28T12:23:27.857Z,3.50
2018-03-28T12:25:55.441Z,1.87
2018-03-28T12:28:27.788Z,4.20
2018-03-28T12:30:55.359Z,3.20
2018-03-28T12:33:23.716Z,3.83
2018-03-28T12:35:51.387Z,2.27
2018-03-28T12:38:18.995Z,2.83
2018-03-28T12:40:47.301Z,1.93
2018-03-28T12:43:14.859Z,1.70
2018-03-28T12:45:42.408Z,1.77
2018-03-28T12:48:09.935Z,2.50
2018-03-28T12:50:37.510Z,2.37
2018-03-28T12:53:05.823Z,2.03
2018-03-28T12:55:33.407Z,2.43
2018-03-28T12:58:00.970Z,2.80
2018-03-28T13:00:28.555Z,2.33
2018-03-28T13:02:56.860Z,1.43
2018-03-28T13:05:24.452Z,1.80
2018-03-28T13:07:52.092Z,2.30
2018-03-28T13:10:20.373Z,2.00
2018-03-28T13:12:47.929Z,3.50
2018-03-28T13:15:15.509Z,2.47
2018-03-28T13:17:43.092Z,1.90
2018-03-28T13:20:10.646Z,7.00
2018-03-28T13:22:38.240Z,2.50
2018-03-28T13:25:06.582Z,2.87
2018-03-28T13:27:34.170Z,5.37
2018-03-28T13:30:01.749Z,4.73
2018-03-28T13:32:30.063Z,2.30
2018-03-28T13:34:57.635Z,2.80
2018-03-28T13:37:25.185Z,2.67
2018-03-28T13:39:52.794Z,5.27
2018-03-28T13:42:21.224Z,2.37
2018-03-28T13:44:48.758Z,2.87
2018-03-28T13:47:16.338Z,8.77
2018-03-28T13:49:43.902Z,3.90
2018-03-28T13:52:11.473Z,4.43
2018-03-28T13:54:39.022Z,4.70
2018-03-28T13:57:06.595Z,1.90
2018-03-28T13:59:34.134Z,1.73
2018-03-28T14:02:01.722Z,3.07
2018-03-28T14:04:29.288Z,10.90
2018-03-28T14:06:56.871Z,3.93
2018-03-28T14:09:25.178Z,3.00
2018-03-28T14:11:52.720Z,3.00
2018-03-28T14:14:21.055Z,4.97
2018-03-28T14:16:48.595Z,8.60
2018-03-28T14:19:16.165Z,4.90
2018-03-28T14:21:43.706Z,4.00
2018-03-28T14:24:11.296Z,5.43
2018-03-28T14:26:38.847Z,3.00
2018-03-28T14:29:06.454Z,2.50
2018-03-28T14:31:34.834Z,4.73
2018-03-28T14:34:02.334Z,7.77
2018-03-28T14:36:30.689Z,12.97
2018-03-28T14:38:58.276Z,2.73
2018-03-28T14:41:25.858Z,2.50
2018-03-28T14:43:53.392Z,3.20
2018-03-28T14:46:20.964Z,3.90
2018-03-28T14:48:48.514Z,4.70
2018-03-28T14:51:16.084Z,2.97
2018-03-28T14:53:43.638Z,3.90
2018-03-28T14:56:11.221Z,2.70
2018-03-28T14:58:38.758Z,2.13
2018-03-28T15:01:06.339Z,5.43
2018-03-28T15:03:33.916Z,3.53
2018-03-28T15:06:01.516Z,3.23
2018-03-28T15:08:29.108Z,4.50
2018-03-28T15:10:56.654Z,3.63
2018-03-28T15:13:24.261Z,2.80
2018-03-28T15:15:52.608Z,8.83
2018-03-28T15:18:20.166Z,3.63
2018-03-28T15:20:47.758Z,3.00
2018-03-28T15:23:16.069Z,5.53
2018-03-28T15:25:43.607Z,5.33
2018-03-28T15:28:11.953Z,4.43
2018-03-28T15:30:39.513Z,5.00
2018-03-28T15:33:07.086Z,4.80
2018-03-28T15:35:34.648Z,8.07
2018-03-28T15:38:03.729Z,4.27
2018-03-28T15:40:31.274Z,6.10
2018-03-28T15:42:58.869Z,11.00
2018-03-28T15:45:27.220Z,6.73
2018-03-28T15:47:54.867Z,6.57
2018-03-28T15:50:22.409Z,23.90
2018-03-28T15:52:50.005Z,22.47
2018-03-28T15:55:17.592Z,9.03
2018-03-28T15:57:46.696Z,6.53
2018-03-28T16:00:15.005Z,4.00
2018-03-28T16:02:42.581Z,2.50
2018-03-28T16:05:10.157Z,2.00
2018-03-28T16:07:37.716Z,2.00
2018-03-28T16:10:05.328Z,2.30
2018-03-28T16:12:33.691Z,2.80
2018-03-28T16:15:02.102Z,2.37
2018-03-28T16:17:30.427Z,4.70
2018-03-28T16:19:57.966Z,22.63
2018-03-28T16:22:25.552Z,19.37
2018-03-28T16:24:53.085Z,3.97
2018-03-28T16:27:20.671Z,5.07
2018-03-28T16:29:48.252Z,4.07
2018-03-28T16:32:15.769Z,3.47
2018-03-28T16:34:43.338Z,7.57
2018-03-28T16:37:10.885Z,4.50
2018-03-28T16:39:38.469Z,2.70
2018-03-28T16:42:06.008Z,6.20
2018-03-28T16:44:33.599Z,6.80
2018-03-28T16:47:01.168Z,4.10
2018-03-28T16:49:28.736Z,26.67
2018-03-28T16:51:56.272Z,16.33
2018-03-28T16:54:23.869Z,32.63
2018-03-28T16:56:52.181Z,5.73
2018-03-28T16:59:19.722Z,8.07
2018-03-28T17:01:47.324Z,18.27
2018-03-28T17:04:14.909Z,8.67
2018-03-28T17:06:43.257Z,6.03
2018-03-28T17:09:10.865Z,5.63
2018-03-28T17:11:39.200Z,37.40
2018-03-28T17:14:06.776Z,25.67
2018-03-28T17:16:35.149Z,5.83
2018-03-28T17:19:04.204Z,19.50
2018-03-28T17:21:31.785Z,19.97
2018-03-28T17:23:59.536Z,4.80
2018-03-28T17:26:27.090Z,4.53
2018-03-28T17:28:54.669Z,30.07
2018-03-28T17:31:22.213Z,35.23
2018-03-28T17:33:49.752Z,12.50
2018-03-28T17:36:17.331Z,8.00
2018-03-28T17:38:44.911Z,20.67
2018-03-28T17:41:12.453Z,14.50
2018-03-28T17:43:40.032Z,8.10
2018-03-28T17:46:07.601Z,4.10
2018-03-28T17:48:35.144Z,15.70
2018-03-28T17:51:02.713Z,24.70
2018-03-28T17:53:30.260Z,21.37
2018-03-28T17:55:57.835Z,44.60
2018-03-28T17:58:25.377Z,5.97
2018-03-28T18:00:52.947Z,11.80
2018-03-28T18:03:20.480Z,8.90
2018-03-28T18:05:48.062Z,11.83
2018-03-28T18:08:15.605Z,39.87
2018-03-28T18:10:43.200Z,22.00
2018-03-28T18:13:10.754Z,11.83
2018-03-28T18:15:38.296Z,5.60
2018-03-28T18:18:05.867Z,10.23
2018-03-28T18:20:33.454Z,42.23
2018-03-28T18:23:01.053Z,19.00
2018-03-28T18:25:28.645Z,8.53
2018-03-28T18:27:56.192Z,10.47
2018-03-28T18:30:23.774Z,10.37
2018-03-28T18:32:51.349Z,5.47
2018-03-28T18:35:18.953Z,4.17
2018-03-28T18:37:47.496Z,3.50
2018-03-28T18:40:15.122Z,3.80
2018-03-28T18:42:42.695Z,2.20
2018-03-28T18:45:10.223Z,3.57
2018-03-28T18:47:37.798Z,3.67
2018-03-28T18:52:46.068Z,25.37
2018-03-28T18:55:13.694Z,2.93
2018-03-28T18:57:41.236Z,2.67
2018-03-28T19:00:08.805Z,7.97
2018-03-28T19:02:36.384Z,3.80
2018-03-28T19:05:03.981Z,3.90
2018-03-28T19:07:31.550Z,1.80
2018-03-28T19:09:59.909Z,2.40
2018-03-28T19:12:27.464Z,13.27
2018-03-28T19:14:55.055Z,3.73
2018-03-28T19:17:23.357Z,4.60
2018-03-28T19:19:50.893Z,2.37
2018-03-28T19:22:19.242Z,32.90
2018-03-28T19:24:46.896Z,3.97
2018-03-28T19:27:14.479Z,7.40
2018-03-28T19:29:42.051Z,2.10
2018-03-28T19:32:10.371Z,10.97
2018-03-28T19:34:37.940Z,7.43
2018-03-28T19:37:05.472Z,5.40
2018-03-28T19:39:33.049Z,2.67
2018-03-28T19:42:00.611Z,5.20
2018-03-28T19:44:28.151Z,3.07
2018-03-28T19:46:55.729Z,2.23
2018-03-28T19:49:23.408Z,2.10
2018-03-28T19:51:50.940Z,2.87
2018-03-28T19:54:18.532Z,21.07
2018-03-28T19:56:46.119Z,4.40
2018-03-28T19:59:13.689Z,1.50
2018-03-28T20:01:42.025Z,2.03
2018-03-28T20:04:09.575Z,2.70
2018-03-28T20:06:37.161Z,1.60
2018-03-28T20:09:05.618Z,1.67
2018-03-28T20:11:33.157Z,1.40
2018-03-28T20:14:00.731Z,2.30
2018-03-28T20:16:28.279Z,17.73
2018-03-28T20:18:55.860Z,13.60
2018-03-28T20:21:23.432Z,11.40
2018-03-28T20:23:50.972Z,28.27
2018-03-28T20:26:18.547Z,11.77
2018-03-28T20:28:46.135Z,2.60
2018-03-28T20:31:13.676Z,13.23
2018-03-28T20:33:41.262Z,8.77
2018-03-28T20:36:08.870Z,8.80
2018-03-28T20:38:37.131Z,3.50
2018-03-28T20:41:04.719Z,2.47
2018-03-28T20:43:32.265Z,2.87
2018-03-28T20:45:59.801Z,4.40
2018-03-28T20:48:27.371Z,2.10
2018-03-28T20:50:54.910Z,2.47
2018-03-28T20:53:23.327Z,2.13
2018-03-28T20:55:50.967Z,1.87
2018-03-28T20:58:18.527Z,2.77
2018-03-28T21:00:46.068Z,2.57
2018-03-28T21:03:14.400Z,6.77
2018-03-28T21:05:41.982Z,3.97
2018-03-28T21:08:09.711Z,3.10
2018-03-28T21:10:37.284Z,1.97
2018-03-28T21:13:04.840Z,1.60
2018-03-28T21:15:32.414Z,1.90
2018-03-28T21:17:59.960Z,1.63
2018-03-28T21:20:27.526Z,2.83
2018-03-28T21:22:55.057Z,1.30
2018-03-28T21:25:22.641Z,2.77
2018-03-28T21:27:50.175Z,2.20
2018-03-28T21:30:17.757Z,2.40
2018-03-28T21:32:45.315Z,2.50
2018-03-28T21:35:12.860Z,1.70
2018-03-28T21:37:40.396Z,2.70
2018-03-28T21:40:08.742Z,1.57
2018-03-28T21:42:36.280Z,1.50
2018-03-28T21:45:03.850Z,3.97
2018-03-28T21:47:31.388Z,3.23
2018-03-28T21:49:58.959Z,2.13
2018-03-28T21:52:26.495Z,2.20
2018-03-28T21:54:54.073Z,1.90
2018-03-28T21:57:21.613Z,1.97
2018-03-28T21:59:49.201Z,5.47
2018-03-28T22:02:16.740Z,3.13
2018-03-28T22:04:44.276Z,3.93
2018-03-28T22:07:11.848Z,1.93
2018-03-28T22:09:39.387Z,1.77
2018-03-28T22:12:07.727Z,2.10
2018-03-28T22:14:35.272Z,2.03
2018-03-28T22:17:02.851Z,2.37
2018-03-28T22:19:30.413Z,1.97
2018-03-28T22:21:57.955Z,3.57
2018-03-28T22:24:25.643Z,2.77
2018-03-28T22:26:53.868Z,2.80
2018-03-28T22:29:21.408Z,2.00
2018-03-28T22:31:49.738Z,2.80
2018-03-28T22:34:17.313Z,2.40
2018-03-28T22:36:44.857Z,4.43
2018-03-28T22:39:12.439Z,2.50
2018-03-28T22:41:39.997Z,1.80
2018-03-28T22:44:07.534Z,2.40
2018-03-28T22:46:35.108Z,5.60
2018-03-28T22:49:02.697Z,2.60
2018-03-28T22:51:31.004Z,2.40
2018-03-28T22:53:58.576Z,2.00
2018-03-28T22:56:26.160Z,2.00
2018-03-28T22:58:53.740Z,2.13
2018-03-28T23:01:21.271Z,4.50
2018-03-28T23:03:49.581Z,2.77
2018-03-28T23:06:17.914Z,2.57
2018-03-28T23:08:45.457Z,2.23
2018-03-28T23:11:13.032Z,3.90
2018-03-28T23:13:40.603Z,1.50
2018-03-28T23:16:08.259Z,1.07
2018-03-28T23:18:35.838Z,2.80
2018-03-28T23:21:03.381Z,1.30
2018-03-28T23:23:30.951Z,2.07
2018-03-28T23:25:58.493Z,1.20
2018-03-28T23:28:26.085Z,1.20
2018-03-28T23:30:53.632Z,1.10
2018-03-28T23:33:21.179Z,1.20
2018-03-28T23:35:48.752Z,1.10
2018-03-28T23:38:16.289Z,1.97
2018-03-28T23:40:43.854Z,1.40
2018-03-28T23:43:11.402Z,1.27
2018-03-28T23:45:38.990Z,0.90
2018-03-28T23:48:06.523Z,1.77
2018-03-28T23:50:34.107Z,1.30
2018-03-28T23:53:01.643Z,0.97
2018-03-28T23:55:29.177Z,1.97
2018-03-28T23:57:57.524Z,1.00
